createdAt,value
2016-08-26T00:00:42.650Z,24.88
2016-08-26T00:01:43.020Z,24.91
2016-08-26T00:02:42.571Z,24.9
2016-08-26T00:03:42.522Z,24.87
2016-08-26T00:04:42.512Z,24.92
2016-08-26T00:05:42.490Z,24.76
2016-08-26T00:06:42.400Z,24.77
2016-08-26T00:07:42.566Z,24.83
2016-08-26T00:08:42.530Z,24.9
2016-08-26T00:09:41.589Z,24.8
2016-08-26T00:10:42.232Z,24.73
2016-08-26T00:11:42.181Z,24.77
2016-08-26T00:12:42.153Z,24.76
2016-08-26T00:13:42.122Z,24.76
2016-08-26T00:14:42.284Z,24.79
2016-08-26T00:15:42.024Z,24.61
2016-08-26T00:16:42.020Z,24.68
2016-08-26T00:17:41.948Z,24.73
2016-08-26T00:18:42.108Z,24.6
2016-08-26T00:19:40.475Z,24.59
2016-08-26T00:20:41.823Z,24.61
2016-08-26T00:21:41.775Z,24.61
2016-08-26T00:22:41.066Z,24.61
2016-08-26T00:23:41.894Z,24.57
2016-08-26T00:24:41.681Z,24.59
2016-08-26T00:25:41.626Z,24.77
2016-08-26T00:26:41.676Z,24.71
2016-08-26T00:27:41.538Z,24.64
2016-08-26T00:28:41.508Z,24.68
2016-08-26T00:29:40.781Z,24.61
2016-08-26T00:30:40.716Z,24.63
2016-08-26T00:31:41.368Z,24.67
2016-08-26T00:32:41.317Z,24.76
2016-08-26T00:33:40.582Z,24.64
2016-08-26T00:34:41.242Z,24.56
2016-08-26T00:35:41.398Z,24.71
2016-08-26T00:36:42.178Z,24.71
2016-08-26T00:37:41.329Z,24.68
2016-08-26T00:38:40.384Z,24.79
2016-08-26T00:39:41.038Z,24.77
2016-08-26T00:40:41.428Z,24.77
2016-08-26T00:41:40.450Z,24.75
2016-08-26T00:42:40.908Z,24.67
2016-08-26T00:43:40.868Z,24.69
2016-08-26T00:44:40.831Z,24.63
2016-08-26T00:45:41.179Z,24.61
2016-08-26T00:46:40.261Z,24.61
2016-08-26T00:47:41.117Z,24.61
2016-08-26T00:48:40.660Z,24.54
2016-08-26T00:49:40.621Z,24.53
2016-08-26T00:50:40.778Z,24.52
2016-08-26T00:51:40.607Z,24.56
2016-08-26T00:52:40.699Z,24.44
2016-08-26T00:53:40.446Z,24.5
2016-08-26T00:54:40.434Z,24.38
2016-08-26T00:55:40.583Z,24.39
2016-08-26T00:56:40.329Z,24.44
2016-08-26T00:57:39.631Z,24.42
2016-08-26T00:58:40.448Z,24.45
2016-08-26T00:59:40.216Z,24.41
2016-08-26T01:00:39.554Z,24.41
2016-08-26T01:01:40.121Z,24.31
2016-08-26T01:02:40.095Z,24.29
2016-08-26T01:03:40.034Z,24.16
2016-08-26T01:04:40.024Z,24.17
2016-08-26T01:05:39.951Z,24.23
2016-08-26T01:06:40.185Z,24.17
2016-08-26T01:07:39.898Z,24.22
2016-08-26T01:08:40.064Z,24.29
2016-08-26T01:09:39.896Z,24.24
2016-08-26T01:10:39.737Z,24.19
2016-08-26T01:11:39.696Z,24.2
2016-08-26T01:12:39.850Z,24.2
2016-08-26T01:13:39.747Z,24.19
2016-08-26T01:14:39.567Z,24.17
2016-08-26T01:15:39.537Z,24.19
2016-08-26T01:16:39.929Z,24.22
2016-08-26T01:17:39.458Z,24.22
2016-08-26T01:18:39.418Z,24.19
2016-08-26T01:19:38.670Z,24.13
2016-08-26T01:20:39.528Z,24.13
2016-08-26T01:21:38.589Z,24.23
2016-08-26T01:22:39.246Z,24.19
2016-08-26T01:23:39.437Z,24.08
2016-08-26T01:24:39.370Z,24.08
2016-08-26T01:25:39.385Z,24.13
2016-08-26T01:26:39.070Z,24.13
2016-08-26T01:27:39.094Z,24.04
2016-08-26T01:28:38.565Z,24.1
2016-08-26T01:29:39.167Z,24.1
2016-08-26T01:30:39.000Z,24.13
2016-08-26T01:31:39.305Z,24.07
2016-08-26T01:32:38.839Z,24.05
2016-08-26T01:33:38.793Z,24.08
2016-08-26T01:34:38.758Z,24.07
2016-08-26T01:35:39.045Z,23.94
2016-08-26T01:36:38.664Z,23.95
2016-08-26T01:37:38.825Z,23.89
2016-08-26T01:38:38.586Z,23.92
2016-08-26T01:39:38.535Z,23.87
2016-08-26T01:40:38.508Z,23.86
2016-08-26T01:41:38.445Z,23.8
2016-08-26T01:42:38.425Z,23.79
2016-08-26T01:43:37.686Z,23.76
2016-08-26T01:44:37.826Z,23.77
2016-08-26T01:45:38.504Z,23.76
2016-08-26T01:46:38.451Z,23.75
2016-08-26T01:47:38.193Z,23.7
2016-08-26T01:48:38.162Z,23.79
2016-08-26T01:49:38.114Z,23.77
2016-08-26T01:50:38.140Z,23.76
2016-08-26T01:51:38.242Z,23.76
2016-08-26T01:52:37.994Z,23.67
2016-08-26T01:53:37.947Z,23.68
2016-08-26T01:54:38.111Z,23.62
2016-08-26T01:55:37.861Z,23.62
2016-08-26T01:56:38.033Z,23.76
2016-08-26T01:57:37.790Z,23.79
2016-08-26T01:58:37.734Z,23.75
2016-08-26T01:59:36.998Z,23.75
2016-08-26T02:00:37.893Z,23.83
2016-08-26T02:01:37.622Z,23.83
2016-08-26T02:02:37.771Z,23.7
2016-08-26T02:03:37.238Z,23.65
2016-08-26T02:04:37.694Z,23.71
2016-08-26T02:05:37.673Z,23.65
2016-08-26T02:06:37.416Z,23.65
2016-08-26T02:07:37.555Z,23.7
2016-08-26T02:08:38.165Z,23.62
2016-08-26T02:09:36.993Z,23.57
2016-08-26T02:10:37.234Z,23.61
2016-08-26T02:11:37.184Z,23.61
2016-08-26T02:12:37.357Z,23.55
2016-08-26T02:13:37.335Z,23.45
2016-08-26T02:14:36.575Z,23.49
2016-08-26T02:15:37.423Z,23.57
2016-08-26T02:16:37.115Z,23.57
2016-08-26T02:17:37.251Z,23.61
2016-08-26T02:18:37.305Z,23.6
2016-08-26T02:19:36.935Z,23.64
2016-08-26T02:20:37.037Z,23.58
2016-08-26T02:21:36.215Z,23.5
2016-08-26T02:22:36.736Z,23.47
2016-08-26T02:23:37.136Z,23.57
2016-08-26T02:24:36.644Z,23.42
2016-08-26T02:25:36.615Z,23.42
2016-08-26T02:26:36.575Z,23.49
2016-08-26T02:27:36.714Z,23.38
2016-08-26T02:28:36.676Z,23.31
2016-08-26T02:29:36.435Z,23.29
2016-08-26T02:30:35.914Z,23.29
2016-08-26T02:31:35.659Z,23.29
2016-08-26T02:32:36.303Z,23.35
2016-08-26T02:33:36.276Z,23.29
2016-08-26T02:34:35.525Z,23.27
2016-08-26T02:35:36.579Z,23.35
2016-08-26T02:36:36.344Z,23.22
2016-08-26T02:37:36.194Z,23.24
2016-08-26T02:38:36.347Z,23.23
2016-08-26T02:39:36.257Z,23.23
2016-08-26T02:40:36.578Z,23.29
2016-08-26T02:41:35.914Z,23.26
2016-08-26T02:42:36.686Z,23.31
2016-08-26T02:43:35.140Z,23.29
2016-08-26T02:44:36.002Z,23.17
2016-08-26T02:45:35.065Z,23.19
2016-08-26T02:46:35.928Z,23.14
2016-08-26T02:47:35.684Z,23.22
2016-08-26T02:48:35.836Z,23.2
2016-08-26T02:49:35.585Z,23.19
2016-08-26T02:50:35.946Z,23.04
2016-08-26T02:51:35.505Z,23.19
2016-08-26T02:52:35.464Z,23.19
2016-08-26T02:53:35.463Z,23.17
2016-08-26T02:54:35.585Z,23.17
2016-08-26T02:55:35.411Z,23.23
2016-08-26T02:56:35.491Z,23.26
2016-08-26T02:57:35.251Z,23.27
2016-08-26T02:58:35.203Z,23.32
2016-08-26T02:59:35.173Z,23.26
2016-08-26T03:00:35.126Z,23.19
2016-08-26T03:01:35.284Z,23.2
2016-08-26T03:02:35.244Z,23.22
2016-08-26T03:03:35.195Z,23.2
2016-08-26T03:04:35.156Z,23.14
2016-08-26T03:05:34.915Z,23.2
2016-08-26T03:06:34.872Z,23.23
2016-08-26T03:07:34.844Z,23.22
2016-08-26T03:08:35.194Z,23.2
2016-08-26T03:09:34.188Z,23.17
2016-08-26T03:10:34.755Z,23.23
2016-08-26T03:11:34.667Z,23.17
2016-08-26T03:12:34.626Z,23.14
2016-08-26T03:13:34.563Z,23.17
2016-08-26T03:14:34.577Z,23.05
2016-08-26T03:15:34.494Z,23.14
2016-08-26T03:16:33.746Z,23.14
2016-08-26T03:17:34.400Z,23.07
2016-08-26T03:18:33.878Z,23.11
2016-08-26T03:19:34.745Z,23.2
2016-08-26T03:20:34.471Z,23.17
2016-08-26T03:21:33.529Z,23.11
2016-08-26T03:22:34.285Z,23.17
2016-08-26T03:23:34.408Z,23.04
2016-08-26T03:24:34.215Z,23.05
2016-08-26T03:25:34.157Z,23.05
2016-08-26T03:26:33.318Z,23.05
2016-08-26T03:27:34.090Z,23.07
2016-08-26T03:28:33.935Z,23.04
2016-08-26T03:29:33.905Z,23.05
2016-08-26T03:30:33.886Z,23.05
2016-08-26T03:31:33.804Z,22.99
2016-08-26T03:32:33.764Z,23.04
2016-08-26T03:33:33.723Z,22.94
2016-08-26T03:34:33.682Z,22.9
2016-08-26T03:35:33.645Z,23.02
2016-08-26T03:36:33.606Z,22.94
2016-08-26T03:37:33.594Z,22.87
2016-08-26T03:38:32.838Z,22.8
2016-08-26T03:39:33.684Z,22.92
2016-08-26T03:40:33.624Z,22.8
2016-08-26T03:41:32.693Z,22.87
2016-08-26T03:42:33.535Z,22.89
2016-08-26T03:43:33.305Z,22.92
2016-08-26T03:44:33.255Z,22.94
2016-08-26T03:45:33.214Z,22.97
2016-08-26T03:46:33.173Z,23.02
2016-08-26T03:47:32.638Z,22.9
2016-08-26T03:48:33.293Z,22.87
2016-08-26T03:49:33.045Z,22.93
2016-08-26T03:50:32.313Z,22.77
2016-08-26T03:51:32.267Z,22.8
2016-08-26T03:52:32.943Z,22.82
2016-08-26T03:53:32.881Z,22.86
2016-08-26T03:54:32.831Z,22.84
2016-08-26T03:55:32.795Z,22.78
2016-08-26T03:56:32.747Z,22.86
2016-08-26T03:57:32.696Z,22.74
2016-08-26T03:58:32.673Z,22.74
2016-08-26T03:59:32.615Z,22.78
2016-08-26T04:00:32.571Z,22.84
2016-08-26T04:01:32.536Z,22.89
2016-08-26T04:02:32.895Z,22.84
2016-08-26T04:03:32.454Z,22.82
2016-08-26T04:04:31.713Z,22.87
2016-08-26T04:05:32.381Z,22.78
2016-08-26T04:06:31.819Z,22.84
2016-08-26T04:07:32.484Z,22.86
2016-08-26T04:08:32.436Z,22.86
2016-08-26T04:09:32.214Z,22.82
2016-08-26T04:10:32.173Z,22.8
2016-08-26T04:11:32.094Z,22.77
2016-08-26T04:12:32.074Z,22.71
2016-08-26T04:13:32.441Z,22.8
2016-08-26T04:14:31.342Z,22.82
2016-08-26T04:15:32.344Z,22.82
2016-08-26T04:16:31.929Z,22.69
2016-08-26T04:17:31.170Z,22.71
2016-08-26T04:18:32.410Z,22.62
2016-08-26T04:19:31.259Z,22.62
2016-08-26T04:20:31.045Z,22.6
2016-08-26T04:21:31.751Z,22.62
2016-08-26T04:22:33.047Z,22.64
2016-08-26T04:23:31.652Z,22.62
2016-08-26T04:24:31.554Z,22.57
2016-08-26T04:25:31.723Z,22.54
2016-08-26T04:26:31.682Z,22.62
2016-08-26T04:27:31.132Z,22.74
2016-08-26T04:28:31.383Z,22.74
2016-08-26T04:29:31.343Z,22.71
2016-08-26T04:30:31.332Z,22.72
2016-08-26T04:31:30.824Z,22.77
2016-08-26T04:32:31.219Z,22.74
2016-08-26T04:33:31.187Z,22.77
2016-08-26T04:34:31.127Z,22.77
2016-08-26T04:35:31.273Z,22.75
2016-08-26T04:36:31.055Z,22.77
2016-08-26T04:37:31.002Z,22.72
2016-08-26T04:38:31.183Z,22.77
2016-08-26T04:39:30.438Z,22.77
2016-08-26T04:40:29.488Z,22.75
2016-08-26T04:41:30.837Z,22.71
2016-08-26T04:42:30.105Z,22.67
2016-08-26T04:43:30.453Z,22.68
2016-08-26T04:44:30.006Z,22.59
2016-08-26T04:45:29.951Z,22.64
2016-08-26T04:46:30.666Z,22.71
2016-08-26T04:47:30.574Z,22.67
2016-08-26T04:48:30.532Z,22.74
2016-08-26T04:49:29.788Z,22.62
2016-08-26T04:50:30.440Z,22.71
2016-08-26T04:51:30.409Z,22.64
2016-08-26T04:52:30.556Z,22.59
2016-08-26T04:53:30.325Z,22.6
2016-08-26T04:54:30.288Z,22.53
2016-08-26T04:55:30.236Z,22.6
2016-08-26T04:56:29.701Z,22.64
2016-08-26T04:57:29.483Z,22.6
2016-08-26T04:58:30.106Z,22.49
2016-08-26T04:59:30.276Z,22.5
2016-08-26T05:00:30.827Z,22.46
2016-08-26T05:01:30.196Z,22.49
2016-08-26T05:02:29.953Z,22.47
2016-08-26T05:03:30.531Z,22.54
2016-08-26T05:04:29.859Z,22.54
2016-08-26T05:05:28.434Z,22.59
2016-08-26T05:06:29.775Z,22.53
2016-08-26T05:07:29.017Z,22.56
2016-08-26T05:08:29.886Z,22.54
2016-08-26T05:09:29.647Z,22.67
2016-08-26T05:10:29.793Z,22.75
2016-08-26T05:11:29.545Z,22.78
2016-08-26T05:12:29.694Z,22.74
2016-08-26T05:13:29.524Z,22.75
2016-08-26T05:14:29.431Z,22.74
2016-08-26T05:15:29.586Z,22.83
2016-08-26T05:16:29.334Z,22.74
2016-08-26T05:17:29.307Z,22.74
2016-08-26T05:18:28.746Z,22.82
2016-08-26T05:19:28.936Z,22.75
2016-08-26T05:20:29.177Z,22.67
2016-08-26T05:21:29.351Z,22.67
2016-08-26T05:22:28.593Z,22.65
2016-08-26T05:23:29.065Z,22.69
2016-08-26T05:24:29.011Z,22.71
2016-08-26T05:25:28.456Z,22.65
2016-08-26T05:26:28.921Z,22.56
2016-08-26T05:27:29.278Z,22.6
2016-08-26T05:28:28.325Z,22.6
2016-08-26T05:29:28.095Z,22.54
2016-08-26T05:30:28.765Z,22.6
2016-08-26T05:31:28.695Z,22.65
2016-08-26T05:32:28.854Z,22.71
2016-08-26T05:33:28.803Z,22.67
2016-08-26T05:34:27.871Z,22.69
2016-08-26T05:35:28.525Z,22.74
2016-08-26T05:36:27.992Z,22.77
2016-08-26T05:37:27.759Z,22.71
2016-08-26T05:38:27.700Z,22.8
2016-08-26T05:39:28.343Z,22.83
2016-08-26T05:40:28.532Z,22.84
2016-08-26T05:41:28.280Z,22.84
2016-08-26T05:42:28.241Z,22.92
2016-08-26T05:43:28.391Z,22.89
2016-08-26T05:44:28.150Z,22.93
2016-08-26T05:45:28.095Z,22.89
2016-08-26T05:46:26.857Z,22.84
2016-08-26T05:47:28.074Z,22.92
2016-08-26T05:48:27.457Z,22.93
2016-08-26T05:49:27.933Z,22.96
2016-08-26T05:50:26.513Z,23.01
2016-08-26T05:51:27.355Z,23.05
2016-08-26T05:52:28.001Z,23.01
2016-08-26T05:53:27.066Z,23.08
2016-08-26T05:54:27.021Z,23.07
2016-08-26T05:55:27.004Z,23.05
2016-08-26T05:56:27.335Z,23.08
2016-08-26T05:57:27.617Z,23.02
2016-08-26T05:58:27.558Z,23.04
2016-08-26T05:59:26.797Z,23.09
2016-08-26T06:00:27.485Z,23.17
2016-08-26T06:01:27.636Z,23.07
2016-08-26T06:02:27.374Z,23.12
2016-08-26T06:03:26.657Z,23.15
2016-08-26T06:04:27.486Z,23.2
2016-08-26T06:05:27.267Z,23.2
2016-08-26T06:06:26.702Z,23.32
2016-08-26T06:07:27.153Z,23.27
2016-08-26T06:08:27.114Z,23.31
2016-08-26T06:09:27.084Z,23.4
2016-08-26T06:10:27.031Z,23.4
2016-08-26T06:11:26.286Z,23.38
2016-08-26T06:12:27.155Z,23.34
2016-08-26T06:13:27.113Z,23.42
2016-08-26T06:14:26.946Z,23.42
2016-08-26T06:15:26.113Z,23.5
2016-08-26T06:16:26.774Z,23.49
2016-08-26T06:17:26.258Z,23.47
2016-08-26T06:18:26.692Z,23.55
2016-08-26T06:19:26.867Z,23.5
2016-08-26T06:20:26.613Z,23.58
2016-08-26T06:21:26.555Z,23.61
2016-08-26T06:22:26.523Z,23.61
2016-08-26T06:23:26.481Z,23.61
2016-08-26T06:24:26.428Z,23.62
2016-08-26T06:25:26.395Z,23.64
2016-08-26T06:26:26.063Z,23.67
2016-08-26T06:27:25.618Z,23.67
2016-08-26T06:28:26.468Z,23.62
2016-08-26T06:29:25.733Z,23.7
2016-08-26T06:30:25.691Z,23.7
2016-08-26T06:31:25.462Z,23.76
2016-08-26T06:32:26.093Z,23.94
2016-08-26T06:33:26.060Z,23.87
2016-08-26T06:34:26.021Z,23.92
2016-08-26T06:35:25.963Z,23.98
2016-08-26T06:36:25.933Z,24
2016-08-26T06:37:26.103Z,23.97
2016-08-26T06:38:25.859Z,24.04
2016-08-26T06:39:26.204Z,23.92
2016-08-26T06:40:25.071Z,24.12
2016-08-26T06:41:25.722Z,24.13
2016-08-26T06:42:25.889Z,24.16
2016-08-26T06:43:25.855Z,24.1
2016-08-26T06:44:25.603Z,24.05
2016-08-26T06:45:25.562Z,24.13
2016-08-26T06:46:25.943Z,24.13
2016-08-26T06:47:24.790Z,24.22
2016-08-26T06:48:24.731Z,24.24
2016-08-26T06:49:24.677Z,24.27
2016-08-26T06:50:24.843Z,24.31
2016-08-26T06:51:25.295Z,24.31
2016-08-26T06:52:25.265Z,24.29
2016-08-26T06:53:25.254Z,24.29
2016-08-26T06:54:26.410Z,24.26
2016-08-26T06:55:25.154Z,24.38
2016-08-26T06:56:24.402Z,24.38
2016-08-26T06:57:25.246Z,24.41
2016-08-26T06:58:24.309Z,24.5
2016-08-26T06:59:24.254Z,24.45
2016-08-26T07:00:24.914Z,24.57
2016-08-26T07:01:24.393Z,24.57
2016-08-26T07:02:25.044Z,24.56
2016-08-26T07:03:24.813Z,24.61
2016-08-26T07:04:24.822Z,24.73
2016-08-26T07:05:24.020Z,24.6
2016-08-26T07:06:24.671Z,24.71
2016-08-26T07:07:24.678Z,24.82
2016-08-26T07:08:24.781Z,24.83
2016-08-26T07:09:24.067Z,24.77
2016-08-26T07:10:25.201Z,24.87
2016-08-26T07:11:23.770Z,24.95
2016-08-26T07:12:23.922Z,25.02
2016-08-26T07:13:23.892Z,25
2016-08-26T07:14:23.743Z,25.07
2016-08-26T07:15:24.529Z,25.12
2016-08-26T07:16:24.256Z,25.15
2016-08-26T07:17:24.615Z,25.1
2016-08-26T07:18:23.700Z,25.15
2016-08-26T07:19:24.336Z,25.13
2016-08-26T07:20:23.413Z,25.25
2016-08-26T07:21:24.305Z,25.19
2016-08-26T07:22:23.921Z,25.28
2016-08-26T07:23:23.978Z,25.27
2016-08-26T07:24:24.144Z,25.13
2016-08-26T07:25:23.944Z,25.16
2016-08-26T07:26:23.887Z,25.17
2016-08-26T07:27:23.840Z,25.12
2016-08-26T07:28:23.471Z,25.1
2016-08-26T07:29:23.051Z,25.17
2016-08-26T07:30:23.717Z,25.2
2016-08-26T07:31:23.719Z,25.24
2016-08-26T07:32:23.860Z,25.25
2016-08-26T07:33:23.519Z,25.31
2016-08-26T07:34:23.730Z,25.38
2016-08-26T07:35:22.771Z,25.42
2016-08-26T07:36:22.795Z,25.42
2016-08-26T07:37:23.388Z,25.43
2016-08-26T07:38:23.427Z,25.46
2016-08-26T07:39:22.623Z,25.46
2016-08-26T07:40:22.571Z,25.59
2016-08-26T07:41:23.441Z,25.64
2016-08-26T07:42:23.207Z,25.59
2016-08-26T07:43:23.559Z,25.68
2016-08-26T07:44:23.114Z,25.68
2016-08-26T07:45:23.117Z,25.77
2016-08-26T07:46:23.039Z,25.77
2016-08-26T07:47:22.324Z,25.61
2016-08-26T07:48:22.301Z,25.72
2016-08-26T07:49:23.005Z,25.82
2016-08-26T07:50:22.868Z,25.9
2016-08-26T07:51:22.803Z,25.91
2016-08-26T07:52:22.288Z,25.9
2016-08-26T07:53:22.802Z,25.89
2016-08-26T07:54:22.004Z,25.93
2016-08-26T07:55:21.983Z,25.77
2016-08-26T07:56:22.819Z,25.91
2016-08-26T07:57:22.856Z,25.98
2016-08-26T07:58:22.542Z,25.97
2016-08-26T07:59:21.808Z,26.02
2016-08-26T08:00:22.459Z,26.04
2016-08-26T08:01:22.654Z,26.02
2016-08-26T08:02:21.868Z,26.2
2016-08-26T08:03:22.540Z,26.27
2016-08-26T08:04:22.341Z,26.21
2016-08-26T08:05:22.275Z,26.24
2016-08-26T08:06:21.511Z,26.2
2016-08-26T08:07:22.181Z,26.22
2016-08-26T08:08:20.903Z,26.25
2016-08-26T08:09:22.311Z,26.37
2016-08-26T08:10:21.347Z,26.42
2016-08-26T08:11:22.262Z,26.49
2016-08-26T08:12:21.963Z,26.55
2016-08-26T08:13:21.422Z,26.54
2016-08-26T08:14:21.883Z,26.62
2016-08-26T08:15:22.457Z,26.65
2016-08-26T08:16:21.790Z,26.76
2016-08-26T08:17:21.789Z,26.81
2016-08-26T08:18:21.712Z,26.87
2016-08-26T08:19:21.708Z,26.81
2016-08-26T08:20:21.039Z,26.83
2016-08-26T08:21:21.614Z,26.86
2016-08-26T08:22:20.899Z,26.91
2016-08-26T08:23:21.556Z,26.89
2016-08-26T08:24:21.523Z,26.95
2016-08-26T08:25:20.749Z,26.98
2016-08-26T08:26:21.392Z,26.94
2016-08-26T08:27:20.659Z,26.99
2016-08-26T08:28:21.323Z,26.95
2016-08-26T08:29:20.599Z,26.99
2016-08-26T08:30:20.567Z,27.01
2016-08-26T08:31:20.520Z,27.16
2016-08-26T08:32:21.155Z,27.14
2016-08-26T08:33:20.431Z,27.21
2016-08-26T08:34:21.268Z,27.31
2016-08-26T08:35:21.258Z,27.33
2016-08-26T08:36:21.008Z,27.33
2016-08-26T08:37:19.583Z,27.39
2016-08-26T08:38:20.924Z,27.46
2016-08-26T08:39:21.094Z,27.5
2016-08-26T08:40:20.832Z,27.43
2016-08-26T08:41:20.149Z,27.59
2016-08-26T08:42:20.957Z,27.59
2016-08-26T08:43:20.984Z,27.66
2016-08-26T08:44:20.668Z,27.67
2016-08-26T08:45:20.658Z,27.58
2016-08-26T08:46:20.628Z,27.73
2016-08-26T08:47:19.357Z,27.61
2016-08-26T08:48:20.458Z,27.67
2016-08-26T08:49:19.905Z,27.61
2016-08-26T08:50:19.097Z,27.66
2016-08-26T08:51:20.502Z,27.59
2016-08-26T08:52:19.854Z,27.76
2016-08-26T08:53:20.621Z,27.67
2016-08-26T08:54:18.892Z,27.71
2016-08-26T08:55:20.231Z,27.84
2016-08-26T08:56:20.230Z,27.85
2016-08-26T08:57:19.856Z,27.85
2016-08-26T08:58:19.423Z,27.85
2016-08-26T08:59:19.396Z,27.89
2016-08-26T09:00:20.072Z,27.95
2016-08-26T09:01:19.303Z,27.96
2016-08-26T09:02:19.959Z,28.01
2016-08-26T09:03:19.942Z,27.99
2016-08-26T09:04:19.892Z,28.01
2016-08-26T09:05:19.832Z,28.04
2016-08-26T09:06:19.295Z,28.07
2016-08-26T09:07:19.820Z,28.1
2016-08-26T09:08:19.925Z,28.1
2016-08-26T09:09:18.986Z,28.06
2016-08-26T09:10:18.943Z,28.13
2016-08-26T09:11:19.595Z,28.11
2016-08-26T09:12:18.897Z,28.19
2016-08-26T09:13:19.026Z,28.25
2016-08-26T09:14:18.821Z,28.21
2016-08-26T09:15:19.476Z,28.17
2016-08-26T09:16:18.915Z,28.22
2016-08-26T09:17:19.362Z,28.23
2016-08-26T09:18:20.063Z,28.23
2016-08-26T09:19:19.292Z,28.33
2016-08-26T09:20:19.267Z,28.25
2016-08-26T09:21:18.560Z,28.29
2016-08-26T09:22:18.506Z,28.35
2016-08-26T09:23:19.134Z,28.35
2016-08-26T09:24:19.101Z,28.36
2016-08-26T09:25:19.116Z,28.44
2016-08-26T09:26:19.013Z,28.5
2016-08-26T09:27:18.277Z,28.4
2016-08-26T09:28:18.998Z,28.46
2016-08-26T09:29:18.906Z,28.48
2016-08-26T09:30:18.131Z,28.5
2016-08-26T09:31:18.301Z,28.59
2016-08-26T09:32:18.782Z,28.56
2016-08-26T09:33:18.034Z,28.59
2016-08-26T09:34:18.714Z,28.56
2016-08-26T09:35:18.682Z,28.63
2016-08-26T09:36:18.634Z,28.66
2016-08-26T09:37:18.677Z,28.65
2016-08-26T09:38:17.852Z,28.7
2016-08-26T09:39:17.985Z,28.77
2016-08-26T09:40:17.762Z,28.84
2016-08-26T09:41:18.452Z,28.93
2016-08-26T09:42:18.791Z,28.91
2016-08-26T09:43:18.412Z,29.07
2016-08-26T09:44:17.592Z,29.01
2016-08-26T09:45:17.563Z,29.08
2016-08-26T09:46:17.517Z,29.07
2016-08-26T09:47:17.482Z,29.19
2016-08-26T09:48:18.146Z,29.01
2016-08-26T09:49:18.352Z,29.2
2016-08-26T09:50:16.892Z,29.08
2016-08-26T09:51:18.256Z,29.03
2016-08-26T09:52:18.014Z,29.03
2016-08-26T09:53:18.266Z,29.01
2016-08-26T09:54:17.922Z,29.15
2016-08-26T09:55:17.932Z,29.13
2016-08-26T09:56:17.857Z,29.1
2016-08-26T09:57:17.834Z,29.28
2016-08-26T09:58:16.369Z,29.15
2016-08-26T09:59:17.711Z,29.19
2016-08-26T10:00:18.076Z,29.2
2016-08-26T10:01:17.160Z,29.23
2016-08-26T10:02:17.723Z,29.29
2016-08-26T10:03:16.907Z,29.38
2016-08-26T10:04:17.619Z,29.37
2016-08-26T10:05:17.725Z,29.45
2016-08-26T10:06:16.729Z,29.44
2016-08-26T10:07:17.386Z,29.5
2016-08-26T10:08:16.662Z,29.47
2016-08-26T10:09:17.038Z,29.55
2016-08-26T10:10:19.706Z,29.55
2016-08-26T10:11:17.567Z,29.6
2016-08-26T10:12:17.408Z,29.59
2016-08-26T10:13:16.551Z,29.66
2016-08-26T10:14:17.154Z,29.66
2016-08-26T10:15:16.393Z,29.62
2016-08-26T10:16:16.377Z,29.66
2016-08-26T10:17:15.602Z,29.7
2016-08-26T10:18:16.273Z,29.72
2016-08-26T10:19:16.952Z,29.78
2016-08-26T10:20:15.522Z,29.79
2016-08-26T10:21:16.858Z,29.82
2016-08-26T10:22:16.149Z,29.84
2016-08-26T10:23:16.791Z,29.89
2016-08-26T10:24:16.742Z,29.87
2016-08-26T10:25:16.713Z,29.96
2016-08-26T10:26:16.160Z,29.86
2016-08-26T10:27:16.156Z,30
2016-08-26T10:28:16.775Z,30.03
2016-08-26T10:29:16.989Z,30.11
2016-08-26T10:30:16.923Z,30.26
2016-08-26T10:31:16.492Z,30.23
2016-08-26T10:32:15.923Z,30.24
2016-08-26T10:33:16.864Z,30.19
2016-08-26T10:34:15.861Z,30.05
2016-08-26T10:35:15.677Z,29.94
2016-08-26T10:36:16.300Z,29.9
2016-08-26T10:37:16.264Z,29.86
2016-08-26T10:38:15.682Z,29.93
2016-08-26T10:39:16.433Z,29.97
2016-08-26T10:40:16.214Z,30.02
2016-08-26T10:41:14.809Z,30.09
2016-08-26T10:42:16.070Z,30.12
2016-08-26T10:43:16.042Z,30.14
2016-08-26T10:44:16.167Z,30.29
2016-08-26T10:45:16.202Z,30.24
2016-08-26T10:46:15.899Z,30.31
2016-08-26T10:47:15.149Z,30.36
2016-08-26T10:48:15.834Z,30.36
2016-08-26T10:49:15.788Z,30.33
2016-08-26T10:50:15.759Z,30.34
2016-08-26T10:51:15.015Z,30.3
2016-08-26T10:52:15.894Z,30.29
2016-08-26T10:53:15.627Z,30.36
2016-08-26T10:54:15.644Z,30.45
2016-08-26T10:55:14.856Z,30.4
2016-08-26T10:56:15.494Z,30.4
2016-08-26T10:57:15.894Z,30.38
2016-08-26T10:58:14.742Z,30.4
2016-08-26T10:59:15.399Z,30.36
2016-08-26T11:00:15.343Z,30.3
2016-08-26T11:01:15.299Z,30.29
2016-08-26T11:02:14.568Z,30.29
2016-08-26T11:03:13.837Z,30.24
2016-08-26T11:04:15.429Z,30.18
2016-08-26T11:05:14.470Z,30.29
2016-08-26T11:06:15.145Z,30.3
2016-08-26T11:07:15.150Z,30.36
2016-08-26T11:08:14.643Z,30.31
2016-08-26T11:09:15.063Z,30.33
2016-08-26T11:10:16.116Z,30.33
2016-08-26T11:11:15.164Z,30.36
2016-08-26T11:12:14.188Z,30.37
2016-08-26T11:13:13.451Z,30.36
2016-08-26T11:14:14.129Z,30.36
2016-08-26T11:15:14.068Z,30.36
2016-08-26T11:16:14.026Z,30.4
2016-08-26T11:17:14.757Z,30.49
2016-08-26T11:18:13.242Z,30.5
2016-08-26T11:19:13.215Z,30.61
2016-08-26T11:20:13.922Z,30.74
2016-08-26T11:21:14.546Z,30.69
2016-08-26T11:22:13.777Z,30.74
2016-08-26T11:23:14.480Z,30.74
2016-08-26T11:24:13.741Z,30.71
2016-08-26T11:25:13.732Z,30.76
2016-08-26T11:26:13.704Z,30.78
2016-08-26T11:27:14.311Z,30.76
2016-08-26T11:28:13.772Z,30.9
2016-08-26T11:29:14.305Z,30.9
2016-08-26T11:30:14.398Z,30.91
2016-08-26T11:31:13.654Z,30.99
2016-08-26T11:32:14.121Z,30.98
2016-08-26T11:33:13.408Z,30.99
2016-08-26T11:34:13.528Z,30.93
2016-08-26T11:35:14.007Z,31.01
2016-08-26T11:36:13.999Z,30.96
2016-08-26T11:37:14.010Z,30.9
2016-08-26T11:38:13.916Z,30.99
2016-08-26T11:39:13.862Z,31.08
2016-08-26T11:40:14.036Z,31.06
2016-08-26T11:41:13.067Z,31.04
2016-08-26T11:42:13.937Z,31.04
2016-08-26T11:43:12.991Z,31.04
2016-08-26T11:44:13.925Z,31.09
2016-08-26T11:45:13.830Z,31.17
2016-08-26T11:46:12.911Z,31.28
2016-08-26T11:47:13.546Z,31.35
2016-08-26T11:48:13.791Z,31.28
2016-08-26T11:49:13.506Z,31.28
2016-08-26T11:50:13.741Z,31.26
2016-08-26T11:51:12.736Z,31.35
2016-08-26T11:52:13.429Z,31.28
2016-08-26T11:53:13.524Z,31.2
2016-08-26T11:54:11.883Z,31.27
2016-08-26T11:55:13.430Z,31.31
2016-08-26T11:56:13.411Z,31.26
2016-08-26T11:57:13.166Z,31.3
2016-08-26T11:58:13.153Z,31.36
2016-08-26T11:59:12.409Z,31.43
2016-08-26T12:00:13.508Z,31.38
2016-08-26T12:01:13.316Z,31.42
2016-08-26T12:02:13.553Z,31.48
2016-08-26T12:03:12.999Z,31.49
2016-08-26T12:04:12.891Z,31.57
2016-08-26T12:05:11.449Z,31.65
2016-08-26T12:06:12.845Z,31.76
2016-08-26T12:07:13.593Z,31.72
2016-08-26T12:08:12.926Z,31.6
2016-08-26T12:09:12.019Z,31.5
2016-08-26T12:10:12.942Z,31.68
2016-08-26T12:11:12.698Z,31.8
2016-08-26T12:12:12.811Z,31.77
2016-08-26T12:13:11.878Z,31.85
2016-08-26T12:14:12.715Z,31.87
2016-08-26T12:15:12.478Z,31.79
2016-08-26T12:16:12.638Z,31.8
2016-08-26T12:17:12.411Z,31.77
2016-08-26T12:18:12.377Z,31.93
2016-08-26T12:19:12.366Z,31.92
2016-08-26T12:20:12.280Z,31.87
2016-08-26T12:21:11.659Z,31.93
2016-08-26T12:22:12.216Z,31.95
2016-08-26T12:23:11.750Z,32
2016-08-26T12:24:11.444Z,32.07
2016-08-26T12:25:12.123Z,32
2016-08-26T12:26:12.127Z,32.17
2016-08-26T12:27:12.033Z,32.13
2016-08-26T12:28:11.481Z,32.15
2016-08-26T12:29:11.959Z,32.37
2016-08-26T12:30:11.418Z,32.25
2016-08-26T12:31:11.166Z,32.35
2016-08-26T12:32:11.863Z,32.25
2016-08-26T12:33:11.314Z,32.29
2016-08-26T12:34:12.161Z,32.32
2016-08-26T12:35:11.767Z,32.29
2016-08-26T12:36:11.761Z,32.24
2016-08-26T12:37:11.651Z,32.33
2016-08-26T12:38:10.931Z,32.36
2016-08-26T12:39:11.176Z,32.32
2016-08-26T12:40:11.567Z,32.32
2016-08-26T12:41:12.155Z,32.51
2016-08-26T12:42:11.089Z,32.42
2016-08-26T12:43:11.542Z,32.33
2016-08-26T12:44:11.429Z,32.32
2016-08-26T12:45:11.349Z,32.44
2016-08-26T12:46:10.116Z,32.62
2016-08-26T12:47:10.083Z,32.52
2016-08-26T12:48:10.594Z,32.55
2016-08-26T12:49:11.221Z,32.55
2016-08-26T12:50:10.177Z,32.59
2016-08-26T12:51:11.134Z,32.54
2016-08-26T12:52:10.811Z,32.52
2016-08-26T12:53:11.057Z,32.52
2016-08-26T12:54:10.511Z,32.62
2016-08-26T12:55:11.391Z,32.69